Hillrose, CO (80733)

1:20 AM MDT on August 21, 2014 (GMT -0600)
Ray Addition | Change Station
CLOSE
Current Station
Personal Weather Station
Location: Brush, CO
Elevation: 4249 ft
Nearby Weather Stations

Elev 4249 ft 40.26 °N, 103.63 °W | Updated 44 seconds ago

Mostly Cloudy
Mostly Cloudy
66.8 °F
Feels Like 66.8 °F
N
0.0
Wind Variable Wind from SSW
Gusts 0.0 mph

Today
High -- | Low -- °F
--% Chance of Precip.
Yesterday
High -- | Low -- °F
Precip. -- in
6:10 AM 7:42 PM
Waning Crescent, 16% visible
Pressure 30.00 in
Visibility 10.0 miles
Clouds Mostly Cloudy 11000 ft
Dew Point 59 °F
Humidity 77%
Rainfall 0.00 in
Snow Depth Not available.
UV 0 out of 12
Pollen 9.60 out of 12
Air Quality Not available.
Flu Activity Not available.
METAR KFMM 210715Z AUTO 17003KT 10SM BKN110 18/14 A3000 RMK AO2 LTG DSNT NE AND SE T01760143 PWINO

More Conditions Fewer Conditions

Pressure 30.00 in
Visibility 10.0 miles
Clouds Mostly Cloudy 11000 ft
Dew Point 59 °F
Humidity 77%
Rainfall 0.00 in
Snow Depth Not available.
UV 0 out of 12
Pollen 9.60 out of 12
Air Quality Not available.
Flu Activity Not available.
METAR KFMM 210715Z AUTO 17003KT 10SM BKN110 18/14 A3000 RMK AO2 LTG DSNT NE AND SE T01760143 PWINO

More Conditions Fewer Conditions

Nowcast | as of 12:08 am MDT on August 21, 2014

Scattered showers and thunderstorms will move across the northeast plains through 2 am. Expect some gusty winds...lightning and brief heavy rain.

×

10-Day Weather Forecast

Almanac

Astronomy

Aug. 21, 2014 Rise Set
Actual Time 6:10 AM MDT 7:42 PM MDT
Civil Twilight 5:42 AM MDT 8:11 PM MDT
Nautical Twilight 5:07 AM MDT 8:45 PM MDT
Astronomical Twilight 4:30 AM MDT 9:22 PM MDT
Moon 2:43 AM MDT 5:13 PM MDT
Length of Visible Light 14h 29m
Length of Day
13h 31m
Tomorrow will be 2m 26s shorter.
Waning Crescent, 16% of the Moon is Illuminated
Today
Waning Crescent
Aug 25
New
Sep 2
First Quarter
Sep 8
Full
Sep 15
Last Quarter

Community

WunderPhotos

Upload Photos

1,745,858 photos uploaded!

Nearby

Snow Depth

Station Depth Elevation
Copeland Lake 0 in 8600 ft
Niwot 0 in 9910 ft
Wild Basin 0 in 9560 ft
University Camp 0 in 10300 ft
Echo Lake 0 in 10600 ft

Earthquake Activity

City Distance Mag. Time & Date
No recent earthquake activity has been reported nearby.
Minimum magnitude displayed is 2.5.

Coastal Water Temperatures

Place Temperature
No Stations Reporting

Nearby Weather Stations